Time;durP1;ratioP1;P1;durP2;ratioP2;P2;SDS_P1;SDS_P2;PMS_P1;PMS_P2;Temp;Humidity;BMP_temperature;BMP_pressure;BME280_temperature;BME280_humidity;BME280_pressure;Samples;Min_cycle;Max_cycle;Signal;HPM_P1;HPM_P2
2022/05/27 00:01:51;;;;;;;3.58;1.27;;;13.00;99.90;;;;;;5027864;28;20461;-63
2022/05/27 00:04:16;;;;;;;3.97;1.40;;;13.00;99.90;;;;;;5010150;28;20084;-63
2022/05/27 00:06:42;;;;;;;4.47;1.38;;;13.00;99.90;;;;;;5027749;28;20054;-63
2022/05/27 00:09:08;;;;;;;2.92;1.20;;;12.90;99.90;;;;;;5027248;28;20038;-63
2022/05/27 00:11:34;;;;;;;3.55;1.33;;;13.00;99.90;;;;;;5024932;28;20052;-63
2022/05/27 00:13:59;;;;;;;5.20;1.50;;;12.90;99.90;;;;;;5027463;28;20120;-64
2022/05/27 00:16:25;;;;;;;3.90;1.48;;;13.00;99.90;;;;;;5027564;28;20026;-63
2022/05/27 00:18:51;;;;;;;2.85;1.67;;;12.90;99.90;;;;;;5027030;28;20052;-63
2022/05/27 00:21:17;;;;;;;4.05;1.48;;;12.90;99.90;;;;;;5049711;28;20521;-63
2022/05/27 00:23:43;;;;;;;3.25;1.30;;;12.90;99.90;;;;;;5050348;28;20411;-63
2022/05/27 00:26:09;;;;;;;2.72;1.50;;;12.90;99.90;;;;;;5048683;28;20117;-62
2022/05/27 00:28:35;;;;;;;4.72;1.60;;;12.90;99.90;;;;;;5049970;28;20175;-63
2022/05/27 00:31:00;;;;;;;2.40;1.38;;;12.90;99.90;;;;;;5050287;28;20033;-63
2022/05/27 00:33:26;;;;;;;3.63;1.45;;;12.90;99.90;;;;;;5049446;28;20037;-63
2022/05/27 00:35:52;;;;;;;4.55;1.70;;;13.00;99.90;;;;;;5049884;28;20037;-63
2022/05/27 00:38:18;;;;;;;4.43;1.58;;;13.00;99.90;;;;;;5050017;28;20033;-64
2022/05/27 00:40:47;;;;;;;3.80;1.75;;;13.00;99.90;;;;;;5049580;28;20494;-64
2022/05/27 00:43:13;;;;;;;2.90;1.70;;;13.00;99.90;;;;;;5050135;28;20111;-63
2022/05/27 00:45:42;;;;;;;2.67;2.05;;;13.00;99.90;;;;;;5048899;28;20174;-62
2022/05/27 00:48:14;;;;;;;5.25;1.95;;;13.00;99.90;;;;;;5050057;28;20052;-63
2022/05/27 00:50:41;;;;;;;;;;;13.00;99.90;;;;;;5049354;28;20887;-63
2022/05/27 00:53:09;;;;;;;5.55;2.03;;;13.10;99.90;;;;;;5050295;28;19920;-63
2022/05/27 00:55:45;;;;;;;6.40;2.30;;;13.10;99.90;;;;;;5049965;28;20415;-63
2022/05/27 00:58:34;;;;;;;6.22;2.30;;;13.10;99.90;;;;;;5049792;28;20071;-63
2022/05/27 01:01:00;;;;;;;7.65;2.50;;;13.00;99.90;;;;;;5048134;28;20084;-63
2022/05/27 01:03:27;;;;;;;6.22;2.10;;;13.10;99.90;;;;;;5049358;28;20174;-63
2022/05/27 01:05:53;;;;;;;6.07;2.30;;;13.10;99.90;;;;;;5049544;28;20048;-63
2022/05/27 01:08:21;;;;;;;5.32;2.13;;;13.00;99.90;;;;;;5048602;28;20040;-64
2022/05/27 01:11:24;;;;;;;7.78;2.47;;;13.10;99.90;;;;;;5049588;28;20080;-63
2022/05/27 01:14:08;;;;;;;7.72;2.40;;;13.10;99.90;;;;;;5049929;28;20037;-63
2022/05/27 01:16:34;;;;;;;6.28;2.40;;;13.10;99.90;;;;;;5048942;28;20458;-64
2022/05/27 01:22:05;;;;;;;6.32;2.60;;;13.10;99.90;;;;;;5048486;28;20126;-63
2022/05/27 01:24:51;;;;;;;6.72;2.60;;;13.10;99.90;;;;;;5049398;28;20366;-63
2022/05/27 01:27:35;;;;;;;4.95;2.60;;;13.10;99.90;;;;;;5045606;28;20528;-63
2022/05/27 01:30:20;;;;;;;8.52;2.30;;;13.10;99.90;;;;;;5049129;28;20041;-63
2022/05/27 01:32:57;;;;;;;8.95;2.65;;;13.20;99.90;;;;;;5053257;28;20037;-63
2022/05/27 01:35:37;;;;;;;7.10;2.22;;;13.20;99.90;;;;;;5052673;28;20452;-63
2022/05/27 01:38:13;;;;;;;8.45;2.72;;;13.20;99.90;;;;;;5050788;28;20037;-64
2022/05/27 01:41:04;;;;;;;9.90;2.50;;;13.20;99.90;;;;;;5052010;28;20052;-63
2022/05/27 01:43:41;;;;;;;14.15;2.67;;;13.20;99.90;;;;;;5053202;28;20094;-63
2022/05/27 01:46:38;;;;;;;8.02;2.60;;;13.10;99.90;;;;;;5052543;28;20449;-63
2022/05/27 01:49:30;;;;;;;9.13;2.67;;;13.10;99.90;;;;;;5050196;28;20102;-64
2022/05/27 01:52:13;;;;;;;8.80;2.63;;;13.00;99.90;;;;;;5052328;28;20484;-63
2022/05/27 01:54:51;;;;;;;10.18;2.83;;;13.00;99.90;;;;;;5050993;28;20041;-63
2022/05/27 01:57:29;;;;;;;13.55;3.45;;;13.00;99.90;;;;;;5052206;28;20048;-63
2022/05/27 02:00:01;;;;;;;8.07;2.20;;;13.00;99.90;;;;;;5051743;28;20497;-63
2022/05/27 02:02:30;;;;;;;12.13;2.58;;;12.90;99.90;;;;;;5046592;28;20036;-63
2022/05/27 02:05:07;;;;;;;8.65;2.53;;;12.90;99.90;;;;;;5050749;28;20142;-63
2022/05/27 02:07:52;;;;;;;10.85;2.33;;;12.90;99.90;;;;;;5052829;28;20040;-63
2022/05/27 02:10:30;;;;;;;8.68;2.05;;;12.90;99.90;;;;;;5052526;28;20049;-63
2022/05/27 02:13:23;;;;;;;13.20;2.53;;;12.90;99.90;;;;;;5051435;28;20041;-63
2022/05/27 02:15:51;;;;;;;7.03;2.45;;;12.80;99.90;;;;;;5052446;28;20491;-64
2022/05/27 02:18:22;;;;;;;9.20;2.83;;;12.80;99.90;;;;;;5052525;28;20039;-63
2022/05/27 02:21:04;;;;;;;9.13;2.33;;;12.80;99.90;;;;;;5052332;28;20052;-64
2022/05/27 02:23:59;;;;;;;12.45;2.50;;;12.80;99.90;;;;;;5051646;28;20049;-63
2022/05/27 02:26:31;;;;;;;10.05;2.70;;;12.70;99.90;;;;;;5048015;28;20056;-64
2022/05/27 02:29:01;;;;;;;7.37;2.20;;;12.70;99.90;;;;;;5051988;28;20052;-63
2022/05/27 02:31:31;;;;;;;11.65;2.50;;;12.60;99.90;;;;;;5052347;28;20310;-63
2022/05/27 02:37:11;;;;;;;13.07;2.20;;;12.60;99.90;;;;;;5050838;28;20037;-63
2022/05/27 02:39:37;;;;;;;11.48;2.10;;;12.60;99.90;;;;;;5052060;28;20059;-63
2022/05/27 02:42:16;;;;;;;11.18;2.22;;;12.60;99.90;;;;;;5050754;28;20036;-62
2022/05/27 02:44:50;;;;;;;12.93;2.47;;;12.50;99.90;;;;;;5051263;28;20052;-64
2022/05/27 02:47:25;;;;;;;11.35;2.05;;;12.50;99.90;;;;;;5051979;28;20124;-63
2022/05/27 02:50:39;;;;;;;8.82;2.53;;;12.50;99.90;;;;;;5051532;28;20517;-63
2022/05/27 02:53:19;;;;;;;8.60;2.65;;;12.50;99.90;;;;;;5008836;28;20057;-63
2022/05/27 02:56:03;;;;;;;11.63;2.17;;;12.50;99.90;;;;;;5006363;28;20168;-63
2022/05/27 02:58:30;;;;;;;9.77;1.98;;;12.40;99.90;;;;;;5007385;28;20497;-63
2022/05/27 03:00:56;;;;;;;12.25;2.40;;;12.40;99.90;;;;;;4993150;28;20049;-63
2022/05/27 03:03:22;;;;;;;12.85;2.00;;;12.40;99.90;;;;;;5009396;28;20050;-63
2022/05/27 03:06:09;;;;;;;10.57;2.25;;;12.40;99.90;;;;;;4992809;28;20080;-64
2022/05/27 03:08:56;;;;;;;10.52;2.80;;;12.40;99.90;;;;;;5009657;28;20050;-63
2022/05/27 03:11:27;;;;;;;11.77;2.15;;;12.40;99.90;;;;;;5009405;28;20049;-63
2022/05/27 03:14:23;;;;;;;11.10;2.15;;;12.40;99.90;;;;;;5009563;28;20097;-63
2022/05/27 03:17:21;;;;;;;8.23;2.20;;;12.40;99.90;;;;;;5009658;28;20536;-63
2022/05/27 03:20:05;;;;;;;12.38;2.38;;;12.40;99.90;;;;;;5009260;28;20128;-63
2022/05/27 03:22:55;;;;;;;7.72;1.85;;;12.40;99.90;;;;;;5009271;28;20535;-63
2022/05/27 03:25:45;;;;;;;9.77;2.75;;;12.40;99.90;;;;;;5008560;28;20953;-63
2022/05/27 03:28:15;;;;;;;10.05;2.30;;;12.40;99.90;;;;;;4991020;28;20045;-63
2022/05/27 03:30:51;;;;;;;14.13;2.25;;;12.40;99.90;;;;;;5049921;28;20501;-63
2022/05/27 03:33:37;;;;;;;12.40;2.45;;;12.40;99.90;;;;;;5049713;28;20116;-64
2022/05/27 03:36:18;;;;;;;11.48;2.40;;;12.40;99.90;;;;;;5050670;28;20048;-63
2022/05/27 03:39:09;;;;;;;7.60;1.90;;;12.40;99.90;;;;;;5048806;28;20567;-63
2022/05/27 03:41:44;;;;;;;10.98;2.78;;;12.40;99.90;;;;;;5051332;28;20056;-63
2022/05/27 03:44:17;;;;;;;10.75;2.50;;;12.40;99.90;;;;;;5050123;28;20369;-63
2022/05/27 03:46:43;;;;;;;11.73;2.28;;;12.40;99.90;;;;;;5050297;28;20086;-63
2022/05/27 03:49:08;;;;;;;12.30;2.15;;;12.40;99.90;;;;;;5050769;28;20053;-63
2022/05/27 03:51:51;;;;;;;10.18;1.83;;;12.40;99.90;;;;;;5051002;28;20553;-63
2022/05/27 03:54:17;;;;;;;9.45;2.35;;;12.40;99.90;;;;;;5048335;28;20438;-63
2022/05/27 03:56:43;;;;;;;8.95;2.05;;;12.40;99.90;;;;;;5050417;28;20112;-63
2022/05/27 03:59:13;;;;;;;9.68;2.20;;;12.40;99.90;;;;;;5050164;28;20079;-63
2022/05/27 04:01:41;;;;;;;11.13;2.00;;;12.40;99.90;;;;;;5049742;28;20040;-63
2022/05/27 04:04:10;;;;;;;9.32;2.28;;;12.40;99.90;;;;;;5050103;28;20041;-64
2022/05/27 04:06:36;;;;;;;14.38;2.35;;;12.40;99.90;;;;;;5050396;28;20123;-63
2022/05/27 04:09:03;;;;;;;10.05;2.40;;;12.40;99.90;;;;;;5050113;28;20056;-63
2022/05/27 04:11:30;;;;;;;9.52;2.38;;;12.40;99.90;;;;;;5048555;28;20041;-64
2022/05/27 04:13:56;;;;;;;10.43;2.75;;;12.40;99.90;;;;;;5050256;28;20032;-63
2022/05/27 04:16:23;;;;;;;9.35;1.90;;;12.40;99.90;;;;;;5049870;28;20040;-63
2022/05/27 04:18:48;;;;;;;11.02;2.10;;;12.40;99.90;;;;;;5050113;28;20045;-63
2022/05/27 04:21:14;;;;;;;11.38;2.50;;;12.40;99.90;;;;;;5050008;28;20434;-63
2022/05/27 04:23:40;;;;;;;11.60;2.45;;;12.40;99.90;;;;;;5050205;28;20032;-63
2022/05/27 04:26:06;;;;;;;10.35;2.40;;;12.40;99.90;;;;;;5048809;28;20507;-63
2022/05/27 04:28:33;;;;;;;13.02;2.78;;;12.40;99.90;;;;;;5049559;28;20036;-63
2022/05/27 04:31:00;;;;;;;11.15;1.88;;;12.40;99.90;;;;;;5048989;28;20107;-64
2022/05/27 04:33:27;;;;;;;8.98;2.13;;;12.40;99.90;;;;;;5050220;28;20499;-63
2022/05/27 04:35:54;;;;;;;12.00;2.63;;;12.40;99.90;;;;;;5049833;28;20116;-63
2022/05/27 04:38:23;;;;;;;8.98;2.63;;;12.40;99.90;;;;;;5050492;28;20553;-63
2022/05/27 04:40:49;;;;;;;10.00;2.00;;;12.40;99.90;;;;;;5047864;28;20033;-63
2022/05/27 04:43:16;;;;;;;9.80;2.10;;;12.50;99.90;;;;;;5049573;28;20036;-64
2022/05/27 04:45:42;;;;;;;11.13;2.83;;;12.40;99.90;;;;;;5049606;28;20393;-63
2022/05/27 04:48:09;;;;;;;11.07;2.42;;;12.50;99.90;;;;;;5050270;28;20047;-63
2022/05/27 04:50:35;;;;;;;10.70;2.30;;;12.40;99.90;;;;;;5048012;28;20511;-66
2022/05/27 04:53:00;;;;;;;9.45;2.38;;;12.50;99.90;;;;;;5048469;28;20044;-65
2022/05/27 04:55:26;;;;;;;14.77;2.72;;;12.50;99.90;;;;;;5049686;28;20060;-64
2022/05/27 04:57:59;;;;;;;12.90;2.45;;;12.50;99.90;;;;;;5049295;28;20071;-65
2022/05/27 05:00:31;;;;;;;13.07;2.83;;;12.50;99.90;;;;;;5046124;28;20041;-63
2022/05/27 05:02:57;;;;;;;10.07;2.10;;;12.50;99.90;;;;;;5049585;28;20041;-64
2022/05/27 05:05:26;;;;;;;13.43;2.05;;;12.50;99.90;;;;;;5049831;28;20044;-63
2022/05/27 05:07:59;;;;;;;9.35;2.25;;;12.50;99.90;;;;;;5052237;28;20115;-64
2022/05/27 05:10:26;;;;;;;12.65;2.42;;;12.60;99.90;;;;;;5053402;28;20032;-65
2022/05/27 05:12:53;;;;;;;10.95;1.98;;;12.60;99.90;;;;;;5052079;28;20119;-64
2022/05/27 05:15:19;;;;;;;10.13;2.20;;;12.70;99.90;;;;;;5052112;28;20036;-64
2022/05/27 05:17:46;;;;;;;10.00;2.33;;;12.70;99.90;;;;;;5053401;28;20041;-65
2022/05/27 05:20:14;;;;;;;12.95;2.20;;;12.80;99.90;;;;;;5052684;28;20049;-65
2022/05/27 05:22:40;;;;;;;9.18;1.80;;;12.90;99.90;;;;;;5053021;28;20051;-65
2022/05/27 05:25:08;;;;;;;9.93;2.20;;;12.90;99.90;;;;;;5053149;28;20120;-64
2022/05/27 05:27:34;;;;;;;8.60;2.33;;;12.90;99.90;;;;;;5053178;28;20568;-64
2022/05/27 05:30:01;;;;;;;8.65;1.98;;;13.00;99.90;;;;;;5052903;28;20060;-65
2022/05/27 05:32:27;;;;;;;8.38;1.92;;;13.00;99.90;;;;;;5053191;28;20036;-65
2022/05/27 05:34:54;;;;;;;11.35;2.25;;;13.00;99.90;;;;;;5052460;28;20043;-64
2022/05/27 05:37:20;;;;;;;12.90;2.08;;;13.10;99.90;;;;;;5052826;28;20426;-63
2022/05/27 05:39:46;;;;;;;9.85;2.80;;;13.20;99.90;;;;;;5052995;28;20411;-64
2022/05/27 05:42:12;;;;;;;8.25;1.80;;;13.40;99.90;;;;;;5052617;28;20072;-65
2022/05/27 05:44:38;;;;;;;12.43;2.45;;;13.40;99.90;;;;;;5050226;28;20119;-64
2022/05/27 05:47:04;;;;;;;9.13;2.08;;;13.50;99.90;;;;;;5051727;28;20471;-64
2022/05/27 05:49:29;;;;;;;12.02;1.98;;;13.60;99.90;;;;;;5050215;28;20049;-64
2022/05/27 05:51:58;;;;;;;9.82;1.80;;;13.70;99.90;;;;;;5051160;28;20453;-64
2022/05/27 05:54:25;;;;;;;11.25;2.50;;;13.80;99.90;;;;;;5050595;28;20067;-63
2022/05/27 05:56:52;;;;;;;8.75;2.17;;;13.90;99.90;;;;;;5052471;28;20163;-64
2022/05/27 05:59:19;;;;;;;9.75;2.13;;;14.00;99.90;;;;;;5052197;28;20510;-63
2022/05/27 06:01:45;;;;;;;7.28;1.92;;;14.00;99.90;;;;;;5052987;28;20037;-64
2022/05/27 06:04:11;;;;;;;12.18;2.67;;;14.10;99.90;;;;;;5051094;28;20047;-64
2022/05/27 06:06:38;;;;;;;11.23;2.35;;;14.10;99.90;;;;;;5050870;28;20407;-64
2022/05/27 06:09:05;;;;;;;14.00;2.50;;;14.20;99.90;;;;;;5051168;28;20139;-65
2022/05/27 06:11:31;;;;;;;13.60;2.50;;;14.20;99.90;;;;;;5052103;28;20525;-65
2022/05/27 06:13:57;;;;;;;11.20;2.28;;;14.30;99.90;;;;;;5052133;28;20052;-65
2022/05/27 06:16:22;;;;;;;13.15;2.22;;;14.30;99.90;;;;;;5052331;28;20032;-66
2022/05/27 06:18:49;;;;;;;12.02;2.30;;;14.30;99.90;;;;;;5052454;28;20038;-66
2022/05/27 06:21:15;;;;;;;11.20;2.45;;;14.30;99.90;;;;;;5050660;28;20048;-64
2022/05/27 06:23:41;;;;;;;13.77;2.38;;;14.40;99.90;;;;;;5050491;28;20044;-64
2022/05/27 06:26:09;;;;;;;11.10;2.47;;;14.40;99.90;;;;;;5048514;28;20049;-65
2022/05/27 06:37:09;;;;;;;11.07;2.20;;;14.60;99.90;;;;;;5050434;28;20079;-65
2022/05/27 06:39:36;;;;;;;9.38;2.38;;;14.70;99.90;;;;;;5050038;28;20056;-65
2022/05/27 06:42:04;;;;;;;15.25;2.85;;;14.70;99.90;;;;;;5052033;28;20111;-64
2022/05/27 06:44:29;;;;;;;8.73;2.80;;;14.70;99.90;;;;;;5050889;28;20499;-65
2022/05/27 06:46:56;;;;;;;8.80;2.35;;;14.70;99.90;;;;;;5052094;28;20045;-65
2022/05/27 06:49:21;;;;;;;12.40;2.38;;;14.80;99.90;;;;;;5049844;28;20052;-66
2022/05/27 06:51:47;;;;;;;12.77;2.42;;;14.90;99.90;;;;;;5050411;28;20053;-66
2022/05/27 06:54:15;;;;;;;12.63;2.63;;;14.90;99.90;;;;;;5050589;28;20032;-65
2022/05/27 06:56:42;;;;;;;13.13;2.95;;;14.90;99.90;;;;;;5050887;28;20052;-65
2022/05/27 06:59:09;;;;;;;17.35;2.72;;;14.90;99.90;;;;;;5050117;28;20032;-64
2022/05/27 07:01:35;;;;;;;12.32;2.30;;;14.90;99.90;;;;;;5051591;28;20454;-64
2022/05/27 07:04:02;;;;;;;15.75;2.42;;;15.00;99.90;;;;;;5051957;28;20071;-65
2022/05/27 07:06:37;;;;;;;10.50;2.33;;;15.00;99.90;;;;;;5051676;28;20079;-65
2022/05/27 07:09:05;;;;;;;12.10;2.72;;;14.90;99.90;;;;;;5050129;28;20546;-65
2022/05/27 07:11:32;;;;;;;10.27;2.22;;;14.70;99.90;;;;;;5046570;28;20048;-65
2022/05/27 07:13:57;;;;;;;17.13;2.70;;;14.70;99.90;;;;;;5050028;28;20040;-65
2022/05/27 07:16:23;;;;;;;12.82;2.47;;;14.70;99.90;;;;;;5050827;28;20044;-66
2022/05/27 07:18:48;;;;;;;9.82;2.40;;;14.70;99.90;;;;;;5049752;28;20534;-65
2022/05/27 07:21:14;;;;;;;9.02;2.25;;;14.80;99.90;;;;;;5050786;28;20480;-65
2022/05/27 07:23:40;;;;;;;12.80;2.85;;;14.70;99.90;;;;;;5051094;28;20041;-65
2022/05/27 07:26:06;;;;;;;10.80;2.20;;;14.80;99.90;;;;;;5049977;28;20044;-64
2022/05/27 07:28:31;;;;;;;11.00;1.80;;;14.80;99.90;;;;;;5048686;28;20132;-64
2022/05/27 07:31:01;;;;;;;14.65;3.25;;;14.90;99.90;;;;;;5049004;28;20041;-66
2022/05/27 07:33:27;;;;;;;10.43;2.30;;;14.90;99.90;;;;;;5051109;28;20490;-65
2022/05/27 07:35:53;;;;;;;9.65;2.35;;;15.00;99.90;;;;;;5049784;28;20045;-64
2022/05/27 07:38:18;;;;;;;14.30;2.95;;;15.10;99.90;;;;;;5050970;28;20385;-64
2022/05/27 07:40:44;;;;;;;12.02;2.38;;;15.00;99.90;;;;;;5049418;28;20065;-65
2022/05/27 07:43:10;;;;;;;10.98;2.17;;;15.20;99.90;;;;;;5050674;28;20040;-64
2022/05/27 07:45:38;;;;;;;13.38;2.58;;;15.00;99.90;;;;;;5050708;28;20045;-65
2022/05/27 07:48:04;;;;;;;10.38;2.00;;;14.80;99.90;;;;;;5050633;28;20040;-67
2022/05/27 07:50:30;;;;;;;11.32;2.28;;;14.60;99.90;;;;;;5049986;28;20483;-65
2022/05/27 07:52:56;;;;;;;9.10;2.08;;;14.60;99.90;;;;;;5050241;28;20033;-65
2022/05/27 07:55:22;;;;;;;8.93;2.50;;;14.70;99.90;;;;;;5050269;28;20102;-63
2022/05/27 07:57:48;;;;;;;9.52;2.40;;;14.90;99.90;;;;;;5050761;28;20044;-64
2022/05/27 08:00:21;;;;;;;12.38;2.65;;;14.90;99.90;;;;;;5050815;28;20039;-65
2022/05/27 08:02:47;;;;;;;11.18;2.03;;;14.80;99.90;;;;;;5050541;28;20083;-64
2022/05/27 08:05:16;;;;;;;10.88;2.17;;;14.70;99.90;;;;;;5050957;28;20118;-65
2022/05/27 08:07:42;;;;;;;11.20;2.20;;;14.70;99.90;;;;;;5050673;28;20040;-66
2022/05/27 08:10:09;;;;;;;11.38;2.00;;;14.80;99.90;;;;;;5050646;28;20033;-65
2022/05/27 08:12:35;;;;;;;8.85;2.20;;;14.80;99.90;;;;;;5050012;28;20041;-65
2022/05/27 08:15:01;;;;;;;8.38;2.30;;;14.80;99.90;;;;;;5047644;28;20040;-65
2022/05/27 08:17:26;;;;;;;9.75;2.00;;;14.70;99.90;;;;;;5050182;28;20487;-66
2022/05/27 08:19:52;;;;;;;12.70;2.28;;;14.80;99.90;;;;;;5050180;28;20116;-66
2022/05/27 08:22:18;;;;;;;12.10;2.80;;;14.90;99.90;;;;;;5049369;28;20080;-64
2022/05/27 08:24:44;;;;;;;18.77;2.40;;;15.10;99.90;;;;;;5050512;28;20044;-65
2022/05/27 08:27:11;;;;;;;11.63;2.20;;;15.30;99.90;;;;;;5049166;28;20051;-64
2022/05/27 08:29:36;;;;;;;9.73;2.22;;;15.50;99.90;;;;;;5049938;28;20037;-65
2022/05/27 08:32:04;;;;;;;8.25;1.80;;;15.30;99.90;;;;;;5049876;28;20052;-65
2022/05/27 08:40:35;;;;;;;14.00;2.17;;;15.30;99.90;;;;;;5050400;28;20047;-64
2022/05/27 08:43:23;;;;;;;7.82;2.05;;;15.10;99.90;;;;;;5054548;28;20045;-66
2022/05/27 08:46:04;;;;;;;11.45;2.00;;;14.90;99.90;;;;;;5053916;28;20041;-65
2022/05/27 08:48:34;;;;;;;10.27;2.08;;;15.20;99.90;;;;;;5053236;28;20040;-64
2022/05/27 08:51:20;;;;;;;11.80;2.38;;;15.20;99.90;;;;;;5054066;28;20499;-65
2022/05/27 08:54:07;;;;;;;10.38;2.05;;;15.10;99.90;;;;;;5054372;28;20403;-66
2022/05/27 08:59:31;;;;;;;6.78;1.60;;;15.10;99.90;;;;;;5052734;28;20084;-66
2022/05/27 09:02:08;;;;;;;8.00;1.67;;;15.30;99.90;;;;;;5053651;28;20047;-64
2022/05/27 09:04:42;;;;;;;6.47;1.73;;;15.60;99.90;;;;;;5053820;28;20090;-65
2022/05/27 09:07:38;;;;;;;7.03;1.80;;;15.80;99.90;;;;;;5053504;28;20086;-65
2022/05/27 09:10:08;;;;;;;6.03;1.90;;;15.50;99.90;;;;;;5052538;28;20041;-64
2022/05/27 09:13:01;;;;;;;9.43;2.20;;;15.40;99.90;;;;;;5053803;28;20033;-65
2022/05/27 09:15:42;;;;;;;10.95;2.25;;;15.70;99.90;;;;;;5052328;28;20041;-65
2022/05/27 09:18:32;;;;;;;8.82;2.40;;;15.90;99.90;;;;;;5053330;28;20052;-66
2022/05/27 09:21:31;;;;;;;12.25;1.88;;;15.90;99.90;;;;;;5053238;28;20075;-65
2022/05/27 09:24:24;;;;;;;8.82;1.95;;;15.80;99.90;;;;;;5052135;28;20097;-65
2022/05/27 09:27:12;;;;;;;8.70;1.45;;;16.10;99.90;;;;;;5053599;28;20466;-65
2022/05/27 09:29:53;;;;;;;11.43;1.90;;;16.50;99.90;;;;;;5052895;28;20044;-67
2022/05/27 09:32:30;;;;;;;8.98;1.60;;;16.50;99.90;;;;;;5053508;28;20033;-65
2022/05/27 09:35:01;;;;;;;10.57;1.88;;;16.40;99.90;;;;;;5052303;28;20372;-65
2022/05/27 09:37:32;;;;;;;13.70;2.33;;;16.00;99.90;;;;;;5053388;28;20083;-65
2022/05/27 09:40:04;;;;;;;7.30;1.50;;;15.80;99.90;;;;;;5052668;28;20055;-65
2022/05/27 09:42:42;;;;;;;8.02;1.90;;;16.00;99.90;;;;;;5053378;28;20055;-65
2022/05/27 09:45:09;;;;;;;6.10;1.83;;;16.20;99.90;;;;;;5053053;28;20082;-65
2022/05/27 09:47:35;;;;;;;6.60;1.40;;;16.40;99.90;;;;;;5053200;28;20119;-66
2022/05/27 09:50:04;;;;;;;5.72;1.40;;;16.30;99.90;;;;;;5052397;28;20138;-65
2022/05/27 09:52:36;;;;;;;7.82;1.55;;;16.30;99.90;;;;;;5052380;28;20047;-64
2022/05/27 09:55:25;;;;;;;6.72;1.48;;;16.30;99.90;;;;;;5053052;28;20106;-63
2022/05/27 09:58:03;;;;;;;7.85;1.50;;;16.00;99.80;;;;;;5053148;28;20396;-65
2022/05/27 10:00:48;;;;;;;7.07;1.75;;;15.90;99.90;;;;;;5052449;28;20041;-64
2022/05/27 10:03:36;;;;;;;9.73;1.98;;;15.70;99.70;;;;;;5052574;28;20483;-66
2022/05/27 10:06:05;;;;;;;10.20;1.90;;;15.90;99.90;;;;;;5052705;28;20037;-64
2022/05/27 10:08:44;;;;;;;8.85;1.90;;;16.00;99.90;;;;;;5052898;28;20116;-66
2022/05/27 10:11:26;;;;;;;8.00;1.73;;;16.10;99.90;;;;;;5052027;28;20083;-64
2022/05/27 10:14:12;;;;;;;9.48;1.90;;;16.00;99.70;;;;;;5052674;28;20519;-64
2022/05/27 10:16:40;;;;;;;7.70;1.58;;;15.90;99.90;;;;;;5052666;28;20044;-64
2022/05/27 10:19:14;;;;;;;8.10;1.63;;;15.60;99.50;;;;;;5052312;28;20091;-64
2022/05/27 10:21:54;;;;;;;7.75;1.92;;;16.00;99.90;;;;;;5050927;28;20136;-64
2022/05/27 10:24:58;;;;;;;9.25;1.65;;;16.20;99.90;;;;;;5051130;28;20060;-64
2022/05/27 10:27:34;;;;;;;9.10;1.83;;;16.30;99.90;;;;;;5029882;28;20112;-64
2022/05/27 10:30:06;;;;;;;8.95;1.73;;;16.20;99.80;;;;;;5013387;28;20843;-65
2022/05/27 10:32:43;;;;;;;9.48;1.95;;;16.40;99.90;;;;;;5012795;28;20045;-65
2022/05/27 10:35:21;;;;;;;8.38;1.60;;;16.60;99.90;;;;;;5029923;28;20404;-65
2022/05/27 10:38:10;;;;;;;9.63;1.73;;;16.90;99.90;;;;;;5029889;28;20081;-66
2022/05/27 10:40:56;;;;;;;9.73;2.35;;;17.00;99.80;;;;;;5013368;28;20401;-65
2022/05/27 10:43:36;;;;;;;8.38;1.63;;;16.60;99.30;;;;;;5012718;28;20128;-64
2022/05/27 10:46:09;;;;;;;7.85;1.90;;;16.50;99.90;;;;;;5029798;28;20037;-64
2022/05/27 10:48:35;;;;;;;9.57;1.98;;;16.50;99.30;;;;;;5013416;28;20036;-64
2022/05/27 10:51:18;;;;;;;8.05;2.22;;;16.50;99.70;;;;;;5029445;28;20073;-66
2022/05/27 10:54:08;;;;;;;10.27;1.83;;;16.50;99.90;;;;;;5020530;28;20459;-64
2022/05/27 11:03:34;;;;;;;10.25;2.17;;;16.10;99.90;;;;;;4957785;28;20245;-68
2022/05/27 11:06:31;;;;;;;12.75;2.58;;;15.80;99.30;;;;;;4972567;28;20046;-67
2022/05/27 11:09:15;;;;;;;7.20;1.88;;;15.50;99.90;;;;;;4972661;28;20142;-66
2022/05/27 11:11:56;;;;;;;8.20;2.15;;;15.60;99.90;;;;;;4989699;28;20104;-67
2022/05/27 11:15:12;;;;;;;11.25;1.70;;;15.90;99.90;;;;;;4972286;28;20527;-66
2022/05/27 11:18:08;;;;;;;9.23;2.22;;;16.30;99.90;;;;;;4989488;28;20452;-67
2022/05/27 11:21:13;;;;;;;11.85;2.35;;;16.10;99.50;;;;;;4988887;28;20408;-66
2022/05/27 11:23:47;;;;;;;10.80;2.33;;;16.10;99.90;;;;;;4972454;28;20050;-66
2022/05/27 11:26:43;;;;;;;13.27;2.53;;;16.40;99.90;;;;;;4973018;28;20042;-67
2022/05/27 11:29:28;;;;;;;9.75;1.95;;;16.60;99.90;;;;;;4988578;28;20058;-66
2022/05/27 11:32:25;;;;;;;7.70;1.52;;;16.50;99.90;;;;;;5008921;28;20037;-67
2022/05/27 11:35:02;;;;;;;8.48;2.13;;;16.60;98.50;;;;;;4973387;28;20405;-65
2022/05/27 11:37:39;;;;;;;7.95;1.75;;;16.70;99.90;;;;;;4989640;28;20194;-65
2022/05/27 11:40:28;;;;;;;11.25;1.73;;;16.20;96.80;;;;;;4989549;28;20493;-67
2022/05/27 11:43:05;;;;;;;10.43;2.15;;;16.20;98.00;;;;;;4972951;28;20117;-66
2022/05/27 11:45:32;;;;;;;9.25;1.80;;;15.90;98.50;;;;;;4973079;28;20072;-66
2022/05/27 11:48:08;;;;;;;12.05;2.13;;;15.60;98.80;;;;;;4971744;28;20057;-64
2022/05/27 11:51:11;;;;;;;12.05;2.08;;;15.60;99.90;;;;;;4988854;28;20066;-65
2022/05/27 11:53:43;;;;;;;8.85;1.77;;;16.00;99.90;;;;;;4990712;28;20078;-65
2022/05/27 11:56:16;;;;;;;10.27;1.67;;;16.20;99.90;;;;;;5008741;28;20050;-65
2022/05/27 11:58:47;;;;;;;7.30;2.03;;;16.10;99.20;;;;;;5008120;28;20058;-65
2022/05/27 12:01:36;;;;;;;12.75;2.28;;;15.90;99.90;;;;;;5008407;28;20065;-65
2022/05/27 12:04:25;;;;;;;9.00;1.90;;;15.60;99.80;;;;;;5007801;28;20057;-65
2022/05/27 12:06:58;;;;;;;9.50;2.10;;;15.40;99.90;;;;;;5008680;28;20603;-64
2022/05/27 12:09:27;;;;;;;9.82;2.25;;;15.40;99.90;;;;;;5008474;28;20042;-65
2022/05/27 12:11:59;;;;;;;11.02;2.33;;;15.30;99.50;;;;;;5039849;28;20483;-65
2022/05/27 12:14:46;;;;;;;9.95;1.90;;;15.20;99.90;;;;;;5049803;28;20082;-66
2022/05/27 12:17:18;;;;;;;7.55;1.77;;;15.40;99.90;;;;;;5050532;28;20067;-64
2022/05/27 12:19:53;;;;;;;12.27;2.33;;;15.40;99.90;;;;;;5048767;28;20064;-65
2022/05/27 12:22:25;;;;;;;10.07;2.08;;;15.30;99.90;;;;;;5050207;28;20040;-65
2022/05/27 12:24:58;;;;;;;8.40;2.00;;;15.10;99.90;;;;;;5031989;28;20494;-65
2022/05/27 12:27:25;;;;;;;12.68;2.72;;;15.30;99.90;;;;;;5050119;28;20762;-65
2022/05/27 12:29:52;;;;;;;10.93;2.22;;;15.40;99.90;;;;;;5049308;28;20029;-64
2022/05/27 12:32:22;;;;;;;11.10;2.13;;;15.60;99.90;;;;;;5050312;28;20106;-64
2022/05/27 12:34:48;;;;;;;10.52;2.72;;;15.80;99.90;;;;;;5048080;28;20041;-65
2022/05/27 12:37:28;;;;;;;13.15;2.35;;;15.80;99.90;;;;;;5050509;28;20037;-65
2022/05/27 12:40:17;;;;;;;9.48;2.03;;;15.60;99.90;;;;;;5048899;28;20056;-64
2022/05/27 12:42:43;;;;;;;10.57;2.22;;;15.50;99.90;;;;;;5049424;28;20051;-63
2022/05/27 12:45:33;;;;;;;11.55;1.95;;;15.30;99.90;;;;;;5049719;28;20033;-64
2022/05/27 12:47:59;;;;;;;9.10;1.98;;;15.30;99.90;;;;;;5050270;28;20108;-64
2022/05/27 12:50:38;;;;;;;13.32;2.78;;;15.30;99.90;;;;;;5048058;28;20132;-65
2022/05/27 12:53:19;;;;;;;13.73;2.45;;;15.20;99.90;;;;;;5050179;28;20133;-65
2022/05/27 13:01:42;;;;;;;14.73;2.60;;;14.80;99.90;;;;;;5049639;28;20068;-64
2022/05/27 13:04:27;;;;;;;11.73;2.22;;;14.80;99.90;;;;;;5049631;28;20071;-65
2022/05/27 13:07:05;;;;;;;11.80;2.33;;;14.70;99.90;;;;;;5049780;28;20125;-65
2022/05/27 13:09:42;;;;;;;12.32;2.45;;;14.60;99.90;;;;;;5047760;28;20049;-64
2022/05/27 13:12:11;;;;;;;15.30;2.28;;;14.60;99.90;;;;;;5045676;28;20053;-65
2022/05/27 13:14:45;;;;;;;13.52;2.28;;;14.50;99.90;;;;;;5046262;28;20065;-65
2022/05/27 13:17:31;;;;;;;11.70;2.60;;;14.60;99.90;;;;;;5046675;28;20369;-64
2022/05/27 13:20:16;;;;;;;13.23;2.30;;;14.60;99.90;;;;;;5047224;28;20147;-65
2022/05/27 13:23:10;;;;;;;11.98;2.30;;;14.40;99.90;;;;;;5048318;28;20507;-65
2022/05/27 13:25:45;;;;;;;9.98;2.13;;;14.30;99.90;;;;;;5048343;28;20076;-63
2022/05/27 13:28:33;;;;;;;12.18;2.15;;;14.20;99.90;;;;;;5051667;28;20541;-64
2022/05/27 13:31:02;;;;;;;13.98;2.40;;;14.10;99.90;;;;;;5052668;28;20040;-65
2022/05/27 13:33:32;;;;;;;10.93;2.25;;;14.20;99.90;;;;;;5051418;28;20045;-64
2022/05/27 13:36:01;;;;;;;12.27;2.22;;;14.40;99.90;;;;;;5051931;28;20049;-65
2022/05/27 13:38:33;;;;;;;11.02;2.00;;;14.80;99.90;;;;;;5050562;28;20033;-66
2022/05/27 13:40:59;;;;;;;14.63;2.15;;;15.10;99.90;;;;;;5061517;28;20526;-64
2022/05/27 13:43:35;;;;;;;12.43;2.25;;;15.30;99.90;;;;;;5051581;28;20093;-64
2022/05/27 13:46:19;;;;;;;11.27;2.42;;;15.10;99.90;;;;;;5049673;28;20124;-65
2022/05/27 13:49:15;;;;;;;17.15;3.08;;;15.20;99.90;;;;;;5049690;28;20048;-65
2022/05/27 13:51:44;;;;;;;13.55;2.33;;;15.30;99.90;;;;;;5050222;28;20061;-64
2022/05/27 13:54:28;;;;;;;12.90;2.72;;;15.40;99.90;;;;;;5052815;28;20577;-64